Time;durP1;ratioP1;P1;durP2;ratioP2;P2;SDS_P1;SDS_P2;PMS_P1;PMS_P2;Temp;Humidity;BMP_temperature;BMP_pressure;BME280_temperature;BME280_humidity;BME280_pressure;Samples;Min_cycle;Max_cycle;Signal;HPM_P1;HPM_P2
2024/01/27 00:02:24;;;;;;;5.20;4.70;;;5.10;79.50;;;;;;6334011;22;20257;-84
2024/01/27 00:04:52;;;;;;;4.97;4.53;;;5.10;79.60;;;;;;6325174;22;20704;-83
2024/01/27 00:07:21;;;;;;;8.17;6.27;;;5.10;79.60;;;;;;6330530;22;20715;-82
2024/01/27 00:09:50;;;;;;;7.13;4.53;;;5.10;79.70;;;;;;6330186;22;20168;-83
2024/01/27 00:12:19;;;;;;;6.43;4.37;;;5.10;79.70;;;;;;6333518;22;20174;-83
2024/01/27 00:14:47;;;;;;;6.60;5.60;;;5.10;79.70;;;;;;6328476;22;20178;-82
2024/01/27 00:17:31;;;;;;;9.37;4.63;;;5.10;79.80;;;;;;6334618;22;20204;-86
2024/01/27 00:20:00;;;;;;;7.33;6.63;;;5.10;80.00;;;;;;6332617;22;20191;-86
2024/01/27 00:22:28;;;;;;;10.27;8.60;;;5.00;80.10;;;;;;6332133;22;20176;-86
2024/01/27 00:24:57;;;;;;;9.33;7.23;;;5.00;80.10;;;;;;6330081;22;20160;-87
2024/01/27 00:27:25;;;;;;;5.17;4.40;;;5.10;80.20;;;;;;6333303;22;20280;-86
2024/01/27 00:29:54;;;;;;;11.13;5.63;;;5.00;80.50;;;;;;6330575;22;20195;-86
2024/01/27 00:32:22;;;;;;;8.43;5.50;;;5.10;80.80;;;;;;6332280;22;20172;-87
2024/01/27 00:34:52;;;;;;;10.13;6.10;;;5.10;81.00;;;;;;6331003;22;20172;-87
2024/01/27 00:37:21;;;;;;;3.60;3.33;;;5.10;81.00;;;;;;6333297;22;20283;-85
2024/01/27 00:39:49;;;;;;;6.70;4.90;;;5.10;81.00;;;;;;6334199;22;20175;-86
2024/01/27 00:42:23;;;;;;;3.60;3.23;;;5.10;81.10;;;;;;6333714;22;20324;-87
2024/01/27 00:44:52;;;;;;;10.17;4.63;;;5.10;81.60;;;;;;6332370;22;20617;-85
2024/01/27 00:47:21;;;;;;;7.20;4.93;;;5.10;82.80;;;;;;6335333;22;20255;-87
2024/01/27 00:49:49;;;;;;;3.70;3.47;;;5.10;82.70;;;;;;6334725;22;20164;-85
2024/01/27 00:52:20;;;;;;;3.90;3.57;;;5.10;82.70;;;;;;6335809;22;20165;-86
2024/01/27 00:54:48;;;;;;;3.20;3.00;;;5.20;82.70;;;;;;6333681;22;20354;-87
2024/01/27 00:57:17;;;;;;;5.80;4.10;;;5.20;82.90;;;;;;6335802;22;20263;-87
2024/01/27 00:59:45;;;;;;;6.20;5.13;;;5.20;83.00;;;;;;6333379;22;20652;-87
2024/01/27 01:02:14;;;;;;;3.03;2.83;;;5.30;83.00;;;;;;6332534;22;20253;-88
2024/01/27 01:04:43;;;;;;;4.90;4.30;;;5.30;83.40;;;;;;6331241;22;20583;-88
2024/01/27 01:07:11;;;;;;;4.23;3.87;;;5.30;84.10;;;;;;6332235;22;20172;-87
2024/01/27 01:09:41;;;;;;;6.67;4.60;;;5.30;84.80;;;;;;6332687;22;20165;-87
2024/01/27 01:12:10;;;;;;;5.97;4.50;;;5.30;85.00;;;;;;6331904;22;20709;-88
2024/01/27 01:14:39;;;;;;;5.47;4.00;;;5.20;85.00;;;;;;6332015;22;20176;-88
2024/01/27 01:17:08;;;;;;;5.37;4.87;;;5.20;84.90;;;;;;6338903;22;20195;-88
2024/01/27 01:19:38;;;;;;;4.97;4.50;;;5.30;85.30;;;;;;6340763;22;20175;-88
2024/01/27 01:22:06;;;;;;;4.57;3.40;;;5.20;85.30;;;;;;6339816;22;20168;-87
2024/01/27 01:24:41;;;;;;;6.00;5.40;;;5.20;85.40;;;;;;6337432;22;20532;-88
2024/01/27 01:27:09;;;;;;;3.90;3.57;;;5.20;85.40;;;;;;6335239;22;20247;-87
2024/01/27 01:29:38;;;;;;;1.73;1.63;;;5.30;85.20;;;;;;6335284;22;20169;-88
2024/01/27 01:32:07;;;;;;;5.90;3.33;;;5.30;85.00;;;;;;6334546;22;20666;-87
2024/01/27 01:34:35;;;;;;;3.90;3.40;;;5.30;85.10;;;;;;6332152;22;20346;-88
2024/01/27 01:37:04;;;;;;;6.70;5.00;;;5.30;85.20;;;;;;6336918;22;20234;-88
2024/01/27 01:39:33;;;;;;;3.00;2.77;;;5.30;85.30;;;;;;6335573;22;20498;-88
2024/01/27 01:42:03;;;;;;;10.47;3.77;;;5.40;85.20;;;;;;6334971;22;20164;-87
2024/01/27 01:44:32;;;;;;;6.07;2.67;;;5.40;85.10;;;;;;6331813;22;20168;-87
2024/01/27 01:47:01;;;;;;;5.83;2.33;;;5.40;85.20;;;;;;6335076;22;20251;-88
2024/01/27 01:49:29;;;;;;;3.67;2.37;;;5.40;85.60;;;;;;6335198;22;20168;-87
2024/01/27 01:51:58;;;;;;;5.55;4.05;;;5.40;85.60;;;;;;6334771;22;20472;-87
2024/01/27 01:54:27;;;;;;;2.73;2.53;;;5.30;85.60;;;;;;6331294;22;20160;-86
2024/01/27 01:56:58;;;;;;;5.80;3.97;;;5.30;85.80;;;;;;6336031;22;20173;-86
2024/01/27 01:59:28;;;;;;;6.20;4.97;;;5.30;85.70;;;;;;6335938;22;20636;-88
2024/01/27 02:01:57;;;;;;;4.87;3.57;;;5.30;85.60;;;;;;6335895;22;20555;-86
2024/01/27 02:04:25;;;;;;;3.57;3.23;;;5.30;85.60;;;;;;6331072;22;20177;-86
2024/01/27 02:06:54;;;;;;;7.73;3.27;;;5.30;85.50;;;;;;6335623;22;20165;-86
2024/01/27 02:09:23;;;;;;;3.23;3.03;;;5.30;85.40;;;;;;6334743;22;20214;-86
2024/01/27 02:12:06;;;;;;;2.73;2.53;;;5.30;85.40;;;;;;6334120;22;20164;-86
2024/01/27 02:17:34;;;;;;;5.17;3.63;;;5.30;85.80;;;;;;6333983;22;20636;-86
2024/01/27 02:20:02;;;;;;;3.93;3.50;;;5.30;86.50;;;;;;6336116;22;20620;-87
2024/01/27 02:22:31;;;;;;;8.77;5.13;;;5.30;85.70;;;;;;6335615;22;20169;-87
2024/01/27 02:25:01;;;;;;;3.20;2.73;;;5.30;85.60;;;;;;6332956;22;20466;-87
2024/01/27 02:27:29;;;;;;;6.23;3.50;;;5.30;85.60;;;;;;6336326;22;20165;-86
2024/01/27 02:29:58;;;;;;;6.83;4.60;;;5.30;85.50;;;;;;6333723;22;20229;-85
2024/01/27 02:32:26;;;;;;;7.13;3.87;;;5.30;85.60;;;;;;6333589;22;20179;-86
2024/01/27 02:37:51;;;;;;;6.97;4.80;;;5.30;85.50;;;;;;6336011;22;20189;-85
2024/01/27 02:40:49;;;;;;;4.97;2.90;;;5.20;85.90;;;;;;6332065;22;20169;-85
2024/01/27 02:43:18;;;;;;;5.73;5.27;;;5.20;85.50;;;;;;6333436;22;20190;-85
2024/01/27 02:45:46;;;;;;;4.07;3.67;;;5.20;85.50;;;;;;6334393;22;20164;-87
2024/01/27 02:48:15;;;;;;;2.80;2.60;;;5.20;85.60;;;;;;6333869;22;20169;-87
2024/01/27 02:50:52;;;;;;;6.23;5.00;;;5.20;85.50;;;;;;6334798;22;20534;-87
2024/01/27 02:53:21;;;;;;;5.03;4.63;;;5.10;85.70;;;;;;6332985;22;20171;-87
2024/01/27 02:58:33;;;;;;;5.87;4.70;;;5.10;85.50;;;;;;6338666;22;20206;-87
2024/01/27 03:01:01;;;;;;;5.23;4.17;;;5.10;85.60;;;;;;6334556;22;20679;-86
2024/01/27 03:06:26;;;;;;;3.27;2.97;;;5.10;85.60;;;;;;6333301;22;20239;-88
2024/01/27 03:08:55;;;;;;;3.27;2.97;;;5.10;85.50;;;;;;6336315;22;20194;-87
2024/01/27 03:12:07;;;;;;;4.80;4.30;;;5.10;85.50;;;;;;6332332;22;20168;-87
2024/01/27 03:14:37;;;;;;;4.57;4.17;;;5.10;85.50;;;;;;6332814;22;20176;-86
2024/01/27 03:17:07;;;;;;;4.23;2.37;;;5.10;85.50;;;;;;6335349;22;20179;-87
2024/01/27 03:19:35;;;;;;;6.20;3.50;;;5.10;85.50;;;;;;6335716;22;20194;-87
2024/01/27 03:22:04;;;;;;;3.33;3.03;;;5.10;85.80;;;;;;6335107;22;20187;-87
2024/01/27 03:33:12;;;;;;;11.00;3.73;;;5.00;85.40;;;;;;6332152;22;20493;-87
2024/01/27 03:35:54;;;;;;;6.07;4.33;;;5.00;85.90;;;;;;6333724;22;20165;-87
2024/01/27 03:38:23;;;;;;;5.17;3.70;;;5.00;85.50;;;;;;6337031;22;20275;-87
2024/01/27 03:40:51;;;;;;;4.70;2.27;;;5.00;85.40;;;;;;6335458;22;20171;-87
2024/01/27 03:43:20;;;;;;;1.93;1.77;;;5.00;86.30;;;;;;6333378;22;20608;-87
2024/01/27 03:51:29;;;;;;;6.37;4.23;;;5.00;85.50;;;;;;6332294;22;20259;-87
2024/01/27 03:53:58;;;;;;;11.53;3.53;;;5.00;85.50;;;;;;6331075;22;20179;-86
2024/01/27 03:56:26;;;;;;;4.53;2.80;;;5.10;85.60;;;;;;6332792;22;20169;-86
2024/01/27 03:58:55;;;;;;;1.87;1.77;;;5.10;85.60;;;;;;6339483;22;20287;-84
2024/01/27 04:01:25;;;;;;;3.57;3.10;;;5.10;85.70;;;;;;6341834;22;20192;-85
2024/01/27 04:03:53;;;;;;;6.03;4.10;;;5.10;85.70;;;;;;6342200;22;20226;-85
2024/01/27 04:06:22;;;;;;;3.63;3.33;;;5.10;85.70;;;;;;6335711;22;20612;-86
2024/01/27 04:08:51;;;;;;;4.47;2.83;;;5.10;85.60;;;;;;6335996;22;20243;-87
2024/01/27 04:11:23;;;;;;;2.53;2.40;;;5.10;85.70;;;;;;6335214;22;20492;-84
2024/01/27 04:13:51;;;;;;;6.37;4.27;;;5.10;85.50;;;;;;6330330;22;20191;-84
2024/01/27 04:16:20;;;;;;;5.77;2.63;;;5.10;85.70;;;;;;6330682;22;20178;-83
2024/01/27 04:18:50;;;;;;;4.37;3.97;;;5.10;85.60;;;;;;6336434;22;20527;-84
2024/01/27 04:21:18;;;;;;;3.83;2.00;;;5.20;85.70;;;;;;6330824;22;20179;-84
2024/01/27 04:23:47;;;;;;;10.53;5.63;;;5.20;85.70;;;;;;6330104;22;20169;-84
2024/01/27 04:26:15;;;;;;;7.22;3.05;;;5.20;85.50;;;;;;6331538;22;20415;-84
2024/01/27 04:28:45;;;;;;;1.67;1.57;;;5.20;86.00;;;;;;6333435;22;20161;-84
2024/01/27 04:31:13;;;;;;;10.33;4.20;;;5.20;86.10;;;;;;6329764;22;20267;-84
2024/01/27 04:33:42;;;;;;;3.77;3.43;;;5.30;86.00;;;;;;6328820;22;20357;-84
2024/01/27 04:36:12;;;;;;;2.67;2.47;;;5.30;86.00;;;;;;6330999;22;20497;-84
2024/01/27 04:38:41;;;;;;;2.70;2.47;;;5.30;85.80;;;;;;6334038;22;20199;-88
2024/01/27 04:41:09;;;;;;;12.90;3.90;;;5.30;85.70;;;;;;6333108;22;20294;-86
2024/01/27 04:43:38;;;;;;;3.43;2.80;;;5.40;85.70;;;;;;6330615;22;20328;-87
2024/01/27 04:46:07;;;;;;;3.53;2.60;;;5.40;85.70;;;;;;6332515;22;20168;-87
2024/01/27 04:48:35;;;;;;;2.43;2.27;;;5.40;85.70;;;;;;6334371;22;20169;-87
2024/01/27 04:51:04;;;;;;;4.60;3.70;;;5.40;85.50;;;;;;6330409;22;20169;-87
2024/01/27 04:53:34;;;;;;;5.90;4.07;;;5.40;85.50;;;;;;6331515;22;20165;-86
2024/01/27 04:56:07;;;;;;;4.00;2.50;;;5.40;85.50;;;;;;6332590;22;20375;-86
2024/01/27 04:58:36;;;;;;;3.17;2.97;;;5.40;85.50;;;;;;6335609;22;20175;-86
2024/01/27 05:01:06;;;;;;;5.10;4.33;;;5.30;85.50;;;;;;6333251;22;20188;-86
2024/01/27 05:03:35;;;;;;;4.43;1.77;;;5.30;85.50;;;;;;6330411;22;20536;-84
2024/01/27 05:06:04;;;;;;;3.17;2.63;;;5.30;85.50;;;;;;6331976;22;20201;-86
2024/01/27 05:08:35;;;;;;;5.17;3.93;;;5.30;85.50;;;;;;6333248;22;20371;-82
2024/01/27 05:11:04;;;;;;;3.60;3.30;;;5.30;85.50;;;;;;6332078;22;20164;-82
2024/01/27 05:13:32;;;;;;;1.77;1.67;;;5.30;85.70;;;;;;6328845;22;20561;-84
2024/01/27 05:16:01;;;;;;;4.10;3.70;;;5.30;85.60;;;;;;6328653;22;20168;-83
2024/01/27 05:18:29;;;;;;;6.63;2.77;;;5.30;85.70;;;;;;6329725;22;20243;-85
2024/01/27 05:20:58;;;;;;;3.40;2.37;;;5.30;85.60;;;;;;6333868;22;20172;-84
2024/01/27 05:23:26;;;;;;;2.30;1.77;;;5.30;85.60;;;;;;6328125;22;20243;-85
2024/01/27 05:26:01;;;;;;;3.30;2.53;;;5.30;85.60;;;;;;6331911;22;20172;-84
2024/01/27 05:31:11;;;;;;;1.20;1.10;;;5.40;85.70;;;;;;6328337;22;20172;-84
2024/01/27 05:33:40;;;;;;;1.93;1.73;;;5.50;85.80;;;;;;6326694;22;20256;-83
2024/01/27 05:36:09;;;;;;;3.33;2.43;;;5.50;85.60;;;;;;6331074;22;20185;-83
2024/01/27 05:44:31;;;;;;;1.67;1.57;;;5.60;85.60;;;;;;6328703;22;20171;-84
2024/01/27 05:52:38;;;;;;;2.27;2.07;;;5.60;85.30;;;;;;6333304;22;20627;-83
2024/01/27 05:55:08;;;;;;;2.57;1.97;;;5.60;85.40;;;;;;6326844;22;20499;-84
2024/01/27 05:57:38;;;;;;;2.77;2.57;;;5.60;85.60;;;;;;6334579;22;20164;-83
2024/01/27 06:02:50;;;;;;;1.53;1.10;;;5.60;85.60;;;;;;6331209;22;20253;-84
2024/01/27 06:05:19;;;;;;;1.33;1.23;;;5.60;85.60;;;;;;6328144;22;20199;-84
2024/01/27 06:08:01;;;;;;;1.57;1.47;;;5.60;85.70;;;;;;6329620;22;20169;-84
2024/01/27 06:10:43;;;;;;;1.63;1.53;;;5.60;85.80;;;;;;6331638;22;20172;-83
2024/01/27 06:15:56;;;;;;;4.67;1.77;;;5.60;85.90;;;;;;6334217;22;20187;-82
2024/01/27 06:18:24;;;;;;;3.87;1.57;;;5.60;86.10;;;;;;6332694;22;20384;-83
2024/01/27 06:20:53;;;;;;;2.03;1.73;;;5.60;86.10;;;;;;6330157;22;20303;-82
2024/01/27 06:23:21;;;;;;;0.93;0.93;;;5.60;86.20;;;;;;6328842;22;20544;-83
2024/01/27 06:25:50;;;;;;;2.87;1.73;;;5.60;86.20;;;;;;6333251;22;20659;-83
2024/01/27 06:28:20;;;;;;;1.60;1.50;;;5.60;86.20;;;;;;6330721;22;20553;-84
2024/01/27 06:30:49;;;;;;;2.70;2.50;;;5.60;86.30;;;;;;6332062;22;20239;-83
2024/01/27 06:33:17;;;;;;;2.50;1.93;;;5.60;86.40;;;;;;6330567;22;20180;-84
2024/01/27 06:35:46;;;;;;;1.43;1.17;;;5.60;86.40;;;;;;6331698;22;20166;-83
2024/01/27 06:38:15;;;;;;;4.53;3.13;;;5.70;86.50;;;;;;6331412;22;20199;-84
2024/01/27 06:40:43;;;;;;;1.73;1.63;;;5.70;86.50;;;;;;6332990;22;20200;-86
2024/01/27 06:43:14;;;;;;;1.87;1.33;;;5.70;86.60;;;;;;6332415;22;20237;-84
2024/01/27 06:45:44;;;;;;;2.33;2.20;;;5.70;86.60;;;;;;6338123;22;20188;-84
2024/01/27 06:48:13;;;;;;;2.13;1.93;;;5.80;86.80;;;;;;6338462;22;20178;-85
2024/01/27 06:50:41;;;;;;;1.90;1.80;;;5.80;86.80;;;;;;6333434;22;20510;-86
2024/01/27 06:55:53;;;;;;;1.20;1.10;;;5.90;86.80;;;;;;6330757;22;20224;-88
2024/01/27 06:58:22;;;;;;;3.93;2.30;;;5.90;86.80;;;;;;6338033;22;20168;-86
2024/01/27 07:00:53;;;;;;;5.50;2.43;;;6.00;86.90;;;;;;6332508;22;20196;-82
2024/01/27 07:03:22;;;;;;;0.70;0.70;;;6.00;86.80;;;;;;6331790;22;20176;-83
2024/01/27 07:05:51;;;;;;;1.73;1.30;;;6.00;86.80;;;;;;6331964;22;20644;-90
2024/01/27 07:08:20;;;;;;;1.67;1.57;;;6.00;86.80;;;;;;6332885;22;20167;-89
2024/01/27 07:11:02;;;;;;;1.27;1.03;;;6.10;86.80;;;;;;6334280;22;20236;-90
2024/01/27 07:16:15;;;;;;;3.47;2.60;;;6.20;86.80;;;;;;6333172;22;20162;-86
2024/01/27 07:18:43;;;;;;;2.03;1.87;;;6.30;86.90;;;;;;6334953;22;20174;-87
2024/01/27 07:21:17;;;;;;;1.67;1.57;;;6.30;86.80;;;;;;6333101;22;20309;-87
2024/01/27 07:23:45;;;;;;;3.43;3.13;;;6.30;86.80;;;;;;6331150;22;20819;-86
2024/01/27 07:29:10;;;;;;;2.30;2.10;;;6.30;87.10;;;;;;6334129;22;20192;-87
2024/01/27 07:31:54;;;;;;;2.83;1.97;;;6.30;87.00;;;;;;6331227;22;20180;-87
2024/01/27 07:34:23;;;;;;;1.60;1.20;;;6.30;87.10;;;;;;6328058;22;20206;-87
2024/01/27 07:36:52;;;;;;;2.07;1.97;;;6.30;87.00;;;;;;6336905;22;20274;-87
2024/01/27 07:39:21;;;;;;;2.37;1.70;;;6.30;87.10;;;;;;6334124;22;20168;-86
2024/01/27 07:41:49;;;;;;;5.40;1.20;;;6.40;87.20;;;;;;6335785;22;20214;-85
2024/01/27 07:44:19;;;;;;;2.60;1.90;;;6.40;87.10;;;;;;6331776;22;20167;-86
2024/01/27 07:46:48;;;;;;;5.27;1.67;;;6.50;87.20;;;;;;6333383;22;20169;-85
2024/01/27 07:49:18;;;;;;;1.63;1.53;;;6.40;87.20;;;;;;6334387;22;20166;-85
2024/01/27 07:51:47;;;;;;;1.17;1.07;;;6.50;87.10;;;;;;6334614;22;20167;-85
2024/01/27 07:54:15;;;;;;;1.40;1.37;;;6.50;87.10;;;;;;6332029;22;20170;-85
2024/01/27 07:56:44;;;;;;;1.63;1.23;;;6.40;87.20;;;;;;6334239;22;20206;-83
2024/01/27 07:59:15;;;;;;;4.00;2.57;;;6.50;87.20;;;;;;6331236;22;20168;-83
2024/01/27 08:01:43;;;;;;;1.40;1.30;;;6.50;87.10;;;;;;6331286;22;20199;-83
2024/01/27 08:04:12;;;;;;;4.57;2.40;;;6.50;87.10;;;;;;6330418;22;20258;-82
2024/01/27 08:06:50;;;;;;;1.53;1.43;;;6.50;87.10;;;;;;6335195;22;20551;-83
2024/01/27 08:09:19;;;;;;;3.50;2.30;;;6.60;87.10;;;;;;6334768;22;20454;-83
2024/01/27 08:11:51;;;;;;;3.03;2.10;;;6.60;87.10;;;;;;6333914;22;20494;-83
2024/01/27 08:14:21;;;;;;;2.97;1.67;;;6.60;86.90;;;;;;6330498;22;20171;-83
2024/01/27 08:16:49;;;;;;;2.30;1.57;;;6.60;87.00;;;;;;6334478;22;20172;-82
2024/01/27 08:19:20;;;;;;;0.73;0.73;;;6.70;87.00;;;;;;6331403;22;20582;-82
2024/01/27 08:21:51;;;;;;;1.13;0.80;;;6.70;87.00;;;;;;6334823;22;20202;-85
2024/01/27 08:24:19;;;;;;;2.00;1.40;;;6.80;87.00;;;;;;6332739;22;20175;-84
2024/01/27 08:26:48;;;;;;;1.10;1.10;;;6.90;87.00;;;;;;6336049;22;20207;-86
2024/01/27 08:29:16;;;;;;;1.47;1.37;;;6.90;86.70;;;;;;6333812;22;20167;-84
2024/01/27 08:31:45;;;;;;;1.95;1.83;;;7.00;86.70;;;;;;6334558;22;20385;-86
2024/01/27 08:34:14;;;;;;;2.00;1.80;;;7.00;86.70;;;;;;6327352;22;20176;-87
2024/01/27 08:36:43;;;;;;;3.60;1.67;;;7.00;86.40;;;;;;6332991;22;20200;-85
2024/01/27 08:39:27;;;;;;;2.87;2.67;;;7.10;86.30;;;;;;6332391;22;20229;-86
2024/01/27 08:41:55;;;;;;;0.90;0.83;;;7.00;86.10;;;;;;6335597;22;20220;-86
2024/01/27 08:45:04;;;;;;;1.83;1.70;;;7.00;85.80;;;;;;6330092;22;20192;-83
2024/01/27 08:47:54;;;;;;;5.13;2.23;;;7.00;86.10;;;;;;6334481;22;20175;-84
2024/01/27 08:59:23;;;;;;;2.47;2.27;;;6.80;86.20;;;;;;6331436;22;20179;-81
2024/01/27 09:01:51;;;;;;;1.07;0.97;;;6.80;86.30;;;;;;6333973;22;20663;-82
2024/01/27 09:04:20;;;;;;;2.57;2.37;;;6.80;86.40;;;;;;6329294;22;20620;-82
2024/01/27 09:09:31;;;;;;;1.53;1.43;;;6.90;86.40;;;;;;6331910;22;20665;-81
2024/01/27 09:12:01;;;;;;;2.03;1.83;;;7.00;86.30;;;;;;6330075;22;20704;-81
2024/01/27 09:14:43;;;;;;;2.43;1.83;;;7.00;86.40;;;;;;6328715;22;20208;-82
2024/01/27 09:17:12;;;;;;;2.60;2.13;;;7.10;86.50;;;;;;6332483;22;20180;-82
2024/01/27 09:19:40;;;;;;;2.13;1.93;;;7.20;86.60;;;;;;6333019;22;20545;-81
2024/01/27 09:22:09;;;;;;;2.07;1.97;;;7.30;86.60;;;;;;6331054;22;20207;-83
2024/01/27 09:24:38;;;;;;;6.20;2.27;;;7.40;86.80;;;;;;6330829;22;20178;-82
2024/01/27 09:27:08;;;;;;;3.20;2.40;;;7.50;86.30;;;;;;6344319;22;20172;-82
2024/01/27 09:29:36;;;;;;;2.67;1.90;;;7.60;86.20;;;;;;6339865;22;20635;-82
2024/01/27 09:32:05;;;;;;;3.87;2.97;;;7.70;86.10;;;;;;6332236;22;20172;-83
2024/01/27 09:34:34;;;;;;;2.73;1.80;;;7.70;85.80;;;;;;6330081;22;20168;-81
2024/01/27 09:37:03;;;;;;;1.43;1.33;;;7.80;85.60;;;;;;6333483;22;20538;-83
2024/01/27 09:39:31;;;;;;;3.67;3.37;;;7.90;85.50;;;;;;6333181;22;20173;-83
2024/01/27 09:42:05;;;;;;;3.97;3.13;;;7.90;84.50;;;;;;6333962;22;20282;-82
2024/01/27 09:44:50;;;;;;;2.33;2.13;;;7.90;84.30;;;;;;6329944;22;20172;-83
2024/01/27 09:55:39;;;;;;;6.57;2.43;;;8.10;83.20;;;;;;6329985;22;20217;-84
2024/01/27 09:58:09;;;;;;;1.60;1.50;;;8.20;82.90;;;;;;6333621;22;20167;-84
2024/01/27 10:00:40;;;;;;;10.13;3.33;;;8.20;82.90;;;;;;6333862;22;20171;-84
2024/01/27 10:03:09;;;;;;;6.10;2.97;;;8.20;81.60;;;;;;6331230;22;20188;-84
2024/01/27 10:05:38;;;;;;;1.93;1.83;;;8.20;80.70;;;;;;6328687;22;20175;-85
2024/01/27 10:08:08;;;;;;;4.23;3.13;;;8.20;81.30;;;;;;6332893;22;20275;-85
2024/01/27 10:10:36;;;;;;;6.47;2.63;;;8.30;81.30;;;;;;6334968;22;20164;-85
2024/01/27 10:13:06;;;;;;;1.77;1.67;;;8.30;81.10;;;;;;6332624;22;20164;-83
2024/01/27 10:15:35;;;;;;;2.83;2.53;;;8.30;82.10;;;;;;6329310;22;20164;-84
2024/01/27 10:18:12;;;;;;;2.13;1.93;;;8.30;80.60;;;;;;6333646;22;20679;-83
2024/01/27 10:20:42;;;;;;;3.53;2.87;;;8.40;81.00;;;;;;6333778;22;20172;-88
2024/01/27 10:23:14;;;;;;;3.33;3.03;;;8.40;81.00;;;;;;6333395;22;20196;-88
2024/01/27 10:25:42;;;;;;;3.47;3.17;;;8.50;80.70;;;;;;6333324;22;20616;-89
2024/01/27 10:28:11;;;;;;;3.57;3.27;;;8.60;80.70;;;;;;6335033;22;20161;-88
2024/01/27 10:30:40;;;;;;;4.37;2.30;;;8.70;80.60;;;;;;6335258;22;20168;-87
2024/01/27 10:33:11;;;;;;;3.80;2.87;;;8.70;80.70;;;;;;6332948;22;20664;-88
2024/01/27 10:35:40;;;;;;;2.53;2.33;;;8.80;80.20;;;;;;6334430;22;20169;-87
2024/01/27 10:38:08;;;;;;;3.93;3.07;;;8.90;80.90;;;;;;6334647;22;20168;-88
2024/01/27 10:40:37;;;;;;;3.10;2.90;;;8.90;79.80;;;;;;6335774;22;20165;-87
2024/01/27 10:43:07;;;;;;;8.33;4.13;;;9.00;80.00;;;;;;6334468;22;20694;-87
2024/01/27 10:45:37;;;;;;;2.77;2.20;;;9.10;79.40;;;;;;6331817;22;20202;-88
2024/01/27 10:48:07;;;;;;;3.77;2.83;;;9.20;79.40;;;;;;6334462;22;20507;-87
2024/01/27 10:50:39;;;;;;;3.07;2.43;;;9.30;79.40;;;;;;6333241;22;20186;-87
2024/01/27 10:53:24;;;;;;;6.83;3.40;;;9.40;79.10;;;;;;6333619;22;20176;-87
2024/01/27 10:55:55;;;;;;;5.80;4.37;;;9.50;79.00;;;;;;6332478;22;20266;-87
2024/01/27 10:58:24;;;;;;;6.97;2.90;;;9.50;78.80;;;;;;6335260;22;20179;-86
2024/01/27 11:00:55;;;;;;;4.30;3.90;;;9.50;78.50;;;;;;6335347;22;20638;-89
2024/01/27 11:03:24;;;;;;;3.50;3.20;;;9.50;78.40;;;;;;6332344;22;20462;-90
2024/01/27 11:05:56;;;;;;;4.93;3.33;;;9.50;76.90;;;;;;6335932;22;20196;-88
2024/01/27 11:08:29;;;;;;;4.77;3.97;;;9.50;76.90;;;;;;6334864;22;20175;-89
2024/01/27 11:10:59;;;;;;;4.33;3.23;;;9.60;77.50;;;;;;6340759;22;20441;-90
2024/01/27 11:13:29;;;;;;;3.10;2.80;;;9.60;76.90;;;;;;6332766;22;20173;-89
2024/01/27 11:15:59;;;;;;;6.33;5.47;;;9.70;77.10;;;;;;6334972;22;20691;-90
2024/01/27 11:18:29;;;;;;;4.17;3.80;;;9.70;76.20;;;;;;6335018;22;20629;-89
2024/01/27 11:21:00;;;;;;;13.83;2.87;;;9.70;74.40;;;;;;6333354;22;20176;-89
2024/01/27 11:23:36;;;;;;;3.87;3.53;;;9.80;75.20;;;;;;6331569;22;20196;-88
2024/01/27 11:26:06;;;;;;;4.50;3.37;;;9.90;74.40;;;;;;6334831;22;20169;-88
2024/01/27 11:28:35;;;;;;;5.60;4.20;;;10.00;74.70;;;;;;6335522;22;20301;-89
2024/01/27 11:31:08;;;;;;;2.60;2.23;;;10.00;75.00;;;;;;6334803;22;20196;-89
2024/01/27 11:33:43;;;;;;;2.30;1.93;;;10.00;72.80;;;;;;6333692;22;20180;-89
2024/01/27 11:36:22;;;;;;;2.47;2.27;;;10.10;74.00;;;;;;6335731;22;20507;-90
2024/01/27 11:38:51;;;;;;;5.17;3.07;;;10.10;74.30;;;;;;6336921;22;20168;-90
2024/01/27 11:41:30;;;;;;;7.23;4.43;;;10.00;72.50;;;;;;6336568;22;20168;-88
2024/01/27 11:44:01;;;;;;;4.17;3.07;;;10.00;71.90;;;;;;6333775;22;20184;-90
2024/01/27 11:46:29;;;;;;;5.40;4.53;;;9.90;71.80;;;;;;6334948;22;20168;-91
2024/01/27 11:48:58;;;;;;;6.07;4.77;;;9.80;71.20;;;;;;6334282;22;20578;-87
2024/01/27 11:51:28;;;;;;;6.87;4.27;;;9.70;71.10;;;;;;6333460;22;20168;-87
2024/01/27 11:53:57;;;;;;;4.47;3.53;;;9.80;71.60;;;;;;6332721;22;20218;-89
2024/01/27 11:59:08;;;;;;;4.93;2.83;;;9.70;72.10;;;;;;6330861;22;20594;-87
2024/01/27 12:01:36;;;;;;;9.53;4.50;;;9.70;72.20;;;;;;6333883;22;20267;-88
2024/01/27 12:04:16;;;;;;;4.73;4.33;;;9.70;72.30;;;;;;6345953;22;20232;-87
2024/01/27 12:06:46;;;;;;;3.20;2.90;;;9.70;72.20;;;;;;6348912;22;20251;-83
2024/01/27 12:09:16;;;;;;;3.60;3.27;;;9.60;71.50;;;;;;6350693;22;20226;-82
2024/01/27 12:11:45;;;;;;;9.33;6.07;;;9.70;72.50;;;;;;6351839;22;20174;-82
2024/01/27 12:14:14;;;;;;;4.83;4.37;;;9.80;72.90;;;;;;6331561;22;20189;-84
2024/01/27 12:16:44;;;;;;;24.37;5.63;;;9.80;72.80;;;;;;6332838;22;20172;-83
2024/01/27 12:19:12;;;;;;;7.27;3.27;;;9.80;73.10;;;;;;6331508;22;20207;-82
2024/01/27 12:21:49;;;;;;;4.97;3.37;;;9.80;72.90;;;;;;6332868;22;20187;-81
2024/01/27 12:24:19;;;;;;;6.97;4.80;;;9.70;72.60;;;;;;6328556;22;20195;-84
2024/01/27 12:26:50;;;;;;;3.67;2.73;;;9.70;72.70;;;;;;6333796;22;20470;-82
2024/01/27 12:29:21;;;;;;;3.87;3.57;;;9.70;73.00;;;;;;6332338;22;20164;-83
2024/01/27 12:31:50;;;;;;;7.57;4.27;;;9.60;72.70;;;;;;6334307;22;20217;-83
2024/01/27 12:34:19;;;;;;;8.20;4.70;;;9.60;72.80;;;;;;6330521;22;20188;-85
2024/01/27 12:36:51;;;;;;;7.77;5.50;;;9.50;73.00;;;;;;6332011;22;20169;-85
2024/01/27 12:39:22;;;;;;;4.63;4.20;;;9.40;73.20;;;;;;6334710;22;20168;-86
2024/01/27 12:41:50;;;;;;;3.13;2.83;;;9.40;73.40;;;;;;6336603;22;20560;-86
2024/01/27 12:44:19;;;;;;;5.40;3.23;;;9.30;73.30;;;;;;6331220;22;20227;-86
2024/01/27 12:46:48;;;;;;;3.10;2.77;;;9.30;73.70;;;;;;6333011;22;20164;-86
2024/01/27 12:49:16;;;;;;;5.13;3.27;;;9.10;73.60;;;;;;6333583;22;20171;-86
2024/01/27 12:51:45;;;;;;;4.70;3.90;;;9.00;73.90;;;;;;6332880;22;20676;-86
2024/01/27 12:54:17;;;;;;;5.07;4.23;;;9.00;74.10;;;;;;6329075;22;20169;-85
2024/01/27 12:56:45;;;;;;;6.17;4.30;;;9.00;74.40;;;;;;6333751;22;20203;-85
2024/01/27 12:59:14;;;;;;;11.63;6.93;;;9.00;74.50;;;;;;6335503;22;20172;-86
2024/01/27 13:01:42;;;;;;;5.67;4.13;;;9.10;74.90;;;;;;6334734;22;20195;-86
2024/01/27 13:04:11;;;;;;;15.80;3.67;;;9.00;74.70;;;;;;6329730;22;20200;-86
2024/01/27 13:06:39;;;;;;;5.20;4.53;;;9.00;74.80;;;;;;6333454;22;20214;-86
2024/01/27 13:09:11;;;;;;;3.83;3.40;;;9.00;75.00;;;;;;6333274;22;20164;-86
2024/01/27 13:11:41;;;;;;;4.80;3.57;;;9.00;75.10;;;;;;6333005;22;20886;-87
2024/01/27 13:14:11;;;;;;;5.97;4.20;;;9.00;75.30;;;;;;6333006;22;20168;-88
2024/01/27 13:16:40;;;;;;;3.57;2.57;;;8.90;75.30;;;;;;6334293;22;20172;-88
2024/01/27 13:19:08;;;;;;;5.73;3.70;;;8.90;75.40;;;;;;6329126;22;20160;-88
2024/01/27 13:21:39;;;;;;;5.73;4.03;;;8.90;75.50;;;;;;6332290;22;20164;-88
2024/01/27 13:24:09;;;;;;;7.33;4.17;;;8.90;75.70;;;;;;6330969;22;20192;-86
2024/01/27 13:26:38;;;;;;;4.70;3.17;;;8.90;75.70;;;;;;6333575;22;20164;-84
2024/01/27 13:29:23;;;;;;;3.63;3.03;;;8.90;75.80;;;;;;6330130;22;20229;-85
2024/01/27 13:32:06;;;;;;;2.93;2.33;;;8.90;76.00;;;;;;6328699;22;20247;-83
2024/01/27 13:34:34;;;;;;;1.90;1.80;;;8.90;76.00;;;;;;6331760;22;20196;-85
2024/01/27 13:39:59;;;;;;;2.50;2.17;;;8.90;76.30;;;;;;6326978;22;20591;-84
2024/01/27 13:42:28;;;;;;;4.77;3.20;;;8.90;76.50;;;;;;6331543;22;20503;-84
2024/01/27 13:45:12;;;;;;;5.30;3.70;;;8.90;76.60;;;;;;6326600;22;20549;-86
2024/01/27 13:53:06;;;;;;;4.17;3.60;;;8.90;76.50;;;;;;6332472;22;20628;-86
2024/01/27 13:55:35;;;;;;;3.10;2.80;;;8.90;76.60;;;;;;6331933;22;20160;-86
2024/01/27 13:58:05;;;;;;;4.37;3.53;;;8.80;76.60;;;;;;6333257;22;20172;-85
2024/01/27 14:00:35;;;;;;;4.53;3.90;;;8.90;76.60;;;;;;6332443;22;20187;-85
2024/01/27 14:11:25;;;;;;;5.53;4.97;;;8.90;76.40;;;;;;6268635;22;20169;-86
2024/01/27 14:14:07;;;;;;;4.33;3.93;;;8.90;76.10;;;;;;6267434;22;20169;-86
2024/01/27 14:19:20;;;;;;;5.57;2.80;;;8.90;76.10;;;;;;6271426;22;20170;-84
2024/01/27 14:21:48;;;;;;;4.43;3.30;;;8.90;76.30;;;;;;6270925;22;20253;-86
2024/01/27 14:24:32;;;;;;;4.90;2.77;;;8.80;76.40;;;;;;6267725;22;20197;-84
2024/01/27 14:27:01;;;;;;;2.03;1.93;;;8.90;76.50;;;;;;6271542;22;20220;-86
2024/01/27 14:32:28;;;;;;;3.17;2.20;;;8.80;76.60;;;;;;6269638;22;20174;-87
2024/01/27 14:35:10;;;;;;;5.67;2.30;;;8.80;76.60;;;;;;6267442;22;20166;-86
2024/01/27 14:37:39;;;;;;;2.43;2.33;;;8.90;77.60;;;;;;6272124;22;20162;-87
2024/01/27 14:40:22;;;;;;;4.57;3.80;;;8.90;76.90;;;;;;6269426;22;20161;-87
2024/01/27 14:42:50;;;;;;;7.65;4.32;;;8.90;76.70;;;;;;6270205;22;20883;-89
2024/01/27 14:45:19;;;;;;;9.57;3.73;;;8.80;77.20;;;;;;6267153;22;20203;-90
2024/01/27 14:48:05;;;;;;;6.73;3.53;;;8.90;77.30;;;;;;6271621;22;20177;-87
2024/01/27 14:57:26;;;;;;;9.17;5.23;;;8.90;77.10;;;;;;6276812;22;20191;-86
2024/01/27 15:00:38;;;;;;;8.60;2.90;;;8.90;77.10;;;;;;6270489;22;20170;-88